Time;durP1;ratioP1;P1;durP2;ratioP2;P2;SDS_P1;SDS_P2;PMS_P1;PMS_P2;Temp;Humidity;BMP_temperature;BMP_pressure;BME280_temperature;BME280_humidity;BME280_pressure;Samples;Min_cycle;Max_cycle;Signal;HPM_P1;HPM_P2
2021/11/21 00:00:47;;;;;;;33.63;25.10;;;11.00;96.70;;;;;;4859939;29;20045;-78
2021/11/21 00:03:15;;;;;;;29.88;24.20;;;11.00;96.70;;;;;;4873627;29;20465;-79
2021/11/21 00:05:44;;;;;;;28.83;22.63;;;11.00;96.70;;;;;;4890936;29;20131;-78
2021/11/21 00:08:13;;;;;;;28.85;23.30;;;11.00;96.70;;;;;;4870347;29;20507;-78
2021/11/21 00:10:41;;;;;;;30.23;23.55;;;11.00;96.70;;;;;;4875928;29;20055;-77
2021/11/21 00:13:11;;;;;;;30.55;23.60;;;11.00;96.70;;;;;;4872496;29;20044;-78
2021/11/21 00:15:41;;;;;;;31.13;24.20;;;11.10;96.70;;;;;;4873712;29;20056;-77
2021/11/21 00:18:11;;;;;;;30.98;24.05;;;11.10;96.70;;;;;;4872972;29;20427;-76
2021/11/21 00:20:40;;;;;;;29.15;23.23;;;11.10;96.70;;;;;;4889527;29;20053;-77
2021/11/21 00:23:08;;;;;;;28.55;22.88;;;11.10;96.70;;;;;;4889803;29;20152;-77
2021/11/21 00:25:36;;;;;;;30.17;24.35;;;11.10;96.70;;;;;;4884424;29;20032;-77
2021/11/21 00:28:04;;;;;;;27.90;22.23;;;11.10;96.70;;;;;;4889132;29;20048;-76
2021/11/21 00:30:35;;;;;;;33.30;24.65;;;11.10;96.70;;;;;;4886266;29;20399;-77
2021/11/21 00:33:03;;;;;;;32.00;22.95;;;11.10;96.70;;;;;;4872853;29;20480;-76
2021/11/21 00:35:31;;;;;;;29.13;22.50;;;11.10;96.70;;;;;;4872494;29;20048;-77
2021/11/21 00:37:59;;;;;;;32.00;23.58;;;11.10;96.70;;;;;;4872980;29;20044;-78
2021/11/21 00:40:27;;;;;;;32.45;23.48;;;11.10;96.70;;;;;;4873282;29;20045;-76
2021/11/21 00:42:59;;;;;;;33.45;22.83;;;11.10;96.70;;;;;;4873931;29;20045;-76
2021/11/21 00:45:28;;;;;;;33.47;22.58;;;11.10;96.70;;;;;;4887986;29;20136;-76
2021/11/21 00:47:58;;;;;;;34.97;22.85;;;11.00;96.70;;;;;;4873403;29;20485;-77
2021/11/21 00:50:29;;;;;;;35.85;22.67;;;11.00;96.70;;;;;;4889368;29;20043;-77
2021/11/21 00:53:02;;;;;;;36.92;22.08;;;11.00;96.70;;;;;;4856399;29;20536;-77
2021/11/21 00:55:38;;;;;;;34.88;21.63;;;10.90;96.70;;;;;;4870225;29;20060;-78
2021/11/21 00:58:09;;;;;;;38.05;21.70;;;10.90;96.70;;;;;;4887633;29;20044;-78
2021/11/21 01:00:39;;;;;;;33.05;19.88;;;10.90;96.70;;;;;;4887591;29;20049;-77
2021/11/21 01:03:09;;;;;;;28.30;19.48;;;10.90;96.70;;;;;;4872563;29;20032;-76
2021/11/21 01:05:38;;;;;;;29.85;19.13;;;10.90;96.70;;;;;;4880953;29;20127;-77
2021/11/21 01:08:05;;;;;;;37.45;20.20;;;10.80;96.70;;;;;;4873263;29;20085;-77
2021/11/21 01:10:34;;;;;;;34.80;19.65;;;10.80;96.70;;;;;;4871813;29;20111;-78
2021/11/21 01:13:02;;;;;;;28.35;19.92;;;10.80;96.70;;;;;;4885666;29;20557;-77
2021/11/21 01:15:31;;;;;;;31.00;19.45;;;10.70;96.70;;;;;;4873224;29;20084;-78
2021/11/21 01:17:59;;;;;;;31.10;20.08;;;10.70;96.70;;;;;;4890157;29;20055;-77
2021/11/21 01:20:32;;;;;;;33.47;19.60;;;10.60;96.70;;;;;;4884537;29;20044;-77
2021/11/21 01:23:00;;;;;;;30.27;19.88;;;10.60;96.70;;;;;;4872430;29;20135;-77
2021/11/21 01:25:29;;;;;;;30.75;19.05;;;10.50;96.70;;;;;;4870064;29;20045;-77
2021/11/21 01:27:57;;;;;;;36.10;20.20;;;10.60;96.70;;;;;;4888733;29;20057;-78
2021/11/21 01:30:28;;;;;;;44.30;18.85;;;10.50;96.70;;;;;;4872224;29;20044;-78
2021/11/21 01:32:57;;;;;;;38.97;19.33;;;10.40;96.70;;;;;;4872143;29;20583;-77
2021/11/21 01:35:26;;;;;;;54.95;18.98;;;10.50;96.70;;;;;;4873461;29;20044;-76
2021/11/21 01:37:56;;;;;;;32.45;18.50;;;10.40;96.70;;;;;;4872395;29;20106;-77
2021/11/21 01:40:25;;;;;;;37.92;16.77;;;10.40;96.70;;;;;;4892041;29;20139;-77
2021/11/21 01:42:54;;;;;;;45.22;16.38;;;10.40;96.70;;;;;;4870714;29;20503;-77
2021/11/21 01:45:23;;;;;;;33.92;16.08;;;10.40;96.70;;;;;;4873304;29;20855;-77
2021/11/21 01:47:51;;;;;;;36.83;14.93;;;10.40;96.70;;;;;;4888120;29;20398;-78
2021/11/21 01:50:23;;;;;;;37.58;15.85;;;10.30;96.70;;;;;;4891867;29;20049;-78
2021/11/21 01:52:52;;;;;;;23.92;16.27;;;10.30;96.70;;;;;;4888330;29;20100;-77
2021/11/21 01:55:22;;;;;;;32.90;17.42;;;10.30;96.70;;;;;;4885988;29;20124;-78
2021/11/21 01:57:51;;;;;;;24.58;16.00;;;10.30;96.70;;;;;;4871296;29;20235;-77
2021/11/21 02:00:19;;;;;;;34.42;16.73;;;10.30;96.70;;;;;;4890581;29;20518;-77
2021/11/21 02:02:47;;;;;;;29.80;16.67;;;10.30;96.70;;;;;;4874333;29;20117;-77
2021/11/21 02:05:15;;;;;;;16.83;13.80;;;10.30;96.70;;;;;;4874833;29;20040;-77
2021/11/21 02:07:46;;;;;;;25.27;13.85;;;10.20;96.70;;;;;;4884924;29;20736;-77
2021/11/21 02:10:17;;;;;;;16.38;13.57;;;10.20;96.70;;;;;;4870210;29;20559;-77
2021/11/21 02:12:47;;;;;;;23.52;14.15;;;10.20;96.70;;;;;;4890240;29;20045;-77
2021/11/21 02:15:17;;;;;;;30.92;13.90;;;10.20;96.70;;;;;;4891629;29;20084;-77
2021/11/21 02:17:45;;;;;;;19.10;13.13;;;10.10;96.70;;;;;;4890210;29;20108;-77
2021/11/21 02:20:17;;;;;;;19.00;13.63;;;10.10;96.70;;;;;;4873127;29;20067;-76
2021/11/21 02:22:47;;;;;;;16.55;13.50;;;10.00;96.70;;;;;;4882431;29;20063;-77
2021/11/21 02:25:15;;;;;;;21.92;13.77;;;10.00;96.70;;;;;;4872106;29;20579;-77
2021/11/21 02:27:43;;;;;;;19.60;13.75;;;10.00;96.70;;;;;;4887709;29;20040;-76
2021/11/21 02:30:11;;;;;;;17.35;13.60;;;10.10;96.70;;;;;;4892728;29;20064;-77
2021/11/21 02:32:46;;;;;;;23.15;14.43;;;10.20;96.70;;;;;;4888747;29;20040;-77
2021/11/21 02:35:15;;;;;;;32.58;14.95;;;10.10;96.70;;;;;;4888104;29;20052;-77
2021/11/21 02:37:43;;;;;;;14.93;13.00;;;10.10;96.70;;;;;;4855400;29;20049;-77
2021/11/21 02:40:14;;;;;;;19.35;14.48;;;10.00;96.70;;;;;;4867432;29;20053;-77
2021/11/21 02:42:43;;;;;;;24.45;15.20;;;10.00;96.70;;;;;;4866533;29;20139;-77
2021/11/21 02:45:13;;;;;;;19.10;13.55;;;10.00;96.70;;;;;;4872328;29;20418;-77
2021/11/21 02:47:42;;;;;;;28.73;14.75;;;10.10;96.70;;;;;;4887017;29;20059;-77
2021/11/21 02:50:14;;;;;;;33.50;14.52;;;10.00;96.70;;;;;;4885983;29;20047;-77
2021/11/21 02:52:43;;;;;;;18.15;14.25;;;9.90;96.70;;;;;;4855165;29;20056;-77
2021/11/21 02:55:13;;;;;;;22.52;15.13;;;9.90;96.70;;;;;;4869695;29;20503;-76
2021/11/21 02:57:42;;;;;;;18.88;13.90;;;9.90;96.70;;;;;;4889085;29;20036;-77
2021/11/21 03:00:13;;;;;;;27.42;14.68;;;9.90;96.70;;;;;;4885374;29;20040;-77
2021/11/21 03:02:43;;;;;;;32.05;14.50;;;9.90;96.70;;;;;;4889144;29;20499;-78
2021/11/21 03:05:11;;;;;;;29.90;13.80;;;9.90;96.70;;;;;;4886745;29;20056;-77
2021/11/21 03:07:39;;;;;;;25.38;14.05;;;9.90;96.70;;;;;;4886767;29;20048;-78
2021/11/21 03:10:10;;;;;;;34.03;15.02;;;9.90;96.70;;;;;;4874428;29;20045;-77
2021/11/21 03:12:40;;;;;;;29.10;14.07;;;9.80;96.70;;;;;;4882995;29;20076;-77
2021/11/21 03:15:08;;;;;;;28.30;14.02;;;9.70;96.70;;;;;;4870726;29;20048;-78
2021/11/21 03:17:39;;;;;;;29.65;13.77;;;9.70;96.70;;;;;;4887299;29;20048;-77
2021/11/21 03:20:08;;;;;;;20.75;14.07;;;9.70;96.70;;;;;;4871466;29;20139;-77
2021/11/21 03:22:36;;;;;;;24.50;13.68;;;9.70;96.70;;;;;;4883548;29;20064;-77
2021/11/21 03:25:05;;;;;;;26.55;14.30;;;9.80;96.70;;;;;;4855482;29;20045;-77
2021/11/21 03:27:34;;;;;;;38.47;14.70;;;9.90;96.70;;;;;;4871464;29;20044;-77
2021/11/21 03:30:05;;;;;;;35.35;13.70;;;9.80;96.70;;;;;;4876462;29;20052;-77
2021/11/21 03:32:34;;;;;;;25.55;13.13;;;9.80;96.70;;;;;;4885075;29;20045;-77
2021/11/21 03:35:02;;;;;;;23.80;13.40;;;9.80;96.70;;;;;;4888192;29;20072;-77
2021/11/21 03:37:30;;;;;;;23.60;13.18;;;9.80;96.70;;;;;;4873827;29;20048;-78
2021/11/21 03:39:58;;;;;;;24.67;13.00;;;9.70;96.70;;;;;;4890698;29;20067;-77
2021/11/21 03:42:26;;;;;;;27.85;13.02;;;9.80;96.70;;;;;;4873846;29;20052;-77
2021/11/21 03:44:55;;;;;;;20.08;13.02;;;9.70;96.70;;;;;;4890658;29;20040;-77
2021/11/21 03:47:24;;;;;;;18.02;12.52;;;9.70;96.70;;;;;;4890303;29;20235;-77
2021/11/21 03:49:52;;;;;;;23.17;12.88;;;9.80;96.70;;;;;;4891447;29;20036;-76
2021/11/21 03:52:20;;;;;;;22.38;12.98;;;9.80;96.70;;;;;;4874282;29;20140;-77
2021/11/21 03:54:49;;;;;;;21.30;13.50;;;9.70;96.70;;;;;;4889853;29;20131;-78
2021/11/21 03:57:17;;;;;;;22.67;13.98;;;9.70;96.70;;;;;;4886477;29;20060;-77
2021/11/21 03:59:45;;;;;;;44.92;15.52;;;9.80;96.70;;;;;;4890844;29;20069;-77
2021/11/21 04:02:13;;;;;;;27.55;13.52;;;9.70;96.70;;;;;;4885990;29;20416;-77
2021/11/21 04:04:42;;;;;;;25.90;13.30;;;9.70;96.70;;;;;;4874942;29;20523;-77
2021/11/21 04:07:10;;;;;;;22.45;12.98;;;9.80;96.70;;;;;;4871770;29;20270;-77
2021/11/21 04:09:38;;;;;;;26.08;13.73;;;9.80;96.70;;;;;;4874073;29;20044;-78
2021/11/21 04:12:08;;;;;;;34.75;14.52;;;9.70;96.70;;;;;;4874496;29;20044;-78
2021/11/21 04:14:36;;;;;;;27.33;14.27;;;9.70;96.70;;;;;;4888114;29;20041;-78
2021/11/21 04:17:04;;;;;;;25.92;12.65;;;9.60;96.70;;;;;;4890637;29;20139;-77
2021/11/21 04:19:32;;;;;;;25.80;12.85;;;9.70;96.70;;;;;;4873952;29;20060;-77
2021/11/21 04:22:03;;;;;;;25.30;12.80;;;9.70;96.70;;;;;;4888113;29;20063;-77
2021/11/21 04:24:31;;;;;;;26.90;12.00;;;9.70;96.70;;;;;;4891404;29;20040;-77
2021/11/21 04:27:00;;;;;;;30.67;12.25;;;9.70;96.70;;;;;;4871673;29;20040;-76
2021/11/21 04:29:29;;;;;;;31.23;12.88;;;9.70;96.70;;;;;;4889216;29;20040;-77
2021/11/21 04:31:57;;;;;;;22.17;11.43;;;9.70;96.70;;;;;;4889858;29;20051;-78
2021/11/21 04:34:26;;;;;;;36.45;12.00;;;9.70;96.70;;;;;;4873869;29;20060;-78
2021/11/21 04:36:55;;;;;;;22.02;13.43;;;9.80;96.70;;;;;;4871946;29;20041;-77
2021/11/21 04:39:24;;;;;;;27.67;11.63;;;9.70;96.70;;;;;;4870262;29;20084;-77
2021/11/21 04:41:53;;;;;;;32.03;12.77;;;9.80;96.70;;;;;;4877567;29;20048;-77
2021/11/21 04:44:22;;;;;;;31.73;11.27;;;9.80;96.70;;;;;;4873897;29;20415;-78
2021/11/21 04:46:50;;;;;;;27.00;11.98;;;9.80;96.70;;;;;;4875776;29;20104;-77
2021/11/21 04:49:19;;;;;;;30.75;11.25;;;9.80;96.70;;;;;;4893780;29;20508;-77
2021/11/21 04:51:47;;;;;;;24.05;11.07;;;9.80;96.70;;;;;;4870456;29;20052;-77
2021/11/21 04:54:18;;;;;;;35.80;11.85;;;9.80;96.70;;;;;;4876696;29;20068;-77
2021/11/21 04:56:48;;;;;;;20.40;10.90;;;9.70;96.70;;;;;;4888185;29;20431;-77
2021/11/21 04:59:17;;;;;;;18.83;10.45;;;9.70;96.70;;;;;;4892577;29;20053;-77
2021/11/21 05:01:45;;;;;;;19.45;11.18;;;9.60;96.70;;;;;;4872302;29;20041;-77
2021/11/21 05:04:13;;;;;;;13.77;10.68;;;9.60;96.70;;;;;;4869462;29;20573;-78
2021/11/21 05:06:41;;;;;;;10.57;9.48;;;9.60;96.70;;;;;;4873776;29;20072;-78
2021/11/21 05:09:09;;;;;;;10.55;9.07;;;9.60;96.70;;;;;;4874064;29;20036;-78
2021/11/21 05:11:37;;;;;;;10.52;9.32;;;9.60;96.70;;;;;;4870906;29;20040;-78
2021/11/21 05:14:07;;;;;;;13.77;10.27;;;9.50;96.70;;;;;;4872758;29;20057;-78
2021/11/21 05:16:36;;;;;;;11.35;8.93;;;9.50;96.70;;;;;;4872331;29;20049;-79
2021/11/21 05:19:04;;;;;;;15.82;10.20;;;9.60;96.70;;;;;;4873639;29;20056;-78
2021/11/21 05:21:33;;;;;;;12.13;10.27;;;9.60;96.70;;;;;;4874467;29;20473;-78
2021/11/21 05:24:01;;;;;;;11.98;9.40;;;9.60;96.70;;;;;;4888485;29;20515;-77
2021/11/21 05:26:30;;;;;;;11.95;9.80;;;9.70;96.70;;;;;;4872754;29;20587;-77
2021/11/21 05:28:58;;;;;;;11.43;10.25;;;9.60;96.70;;;;;;4891210;29;20474;-77
2021/11/21 05:31:28;;;;;;;11.75;10.38;;;9.60;96.70;;;;;;4890978;29;20043;-77
2021/11/21 05:33:57;;;;;;;11.88;10.57;;;9.70;96.70;;;;;;4891742;29;20063;-77
2021/11/21 05:36:25;;;;;;;11.80;10.55;;;9.70;96.70;;;;;;4869678;29;20617;-77
2021/11/21 05:38:53;;;;;;;12.15;10.85;;;9.70;96.70;;;;;;4881583;29;20562;-77
2021/11/21 05:41:21;;;;;;;11.98;10.65;;;9.80;96.70;;;;;;4875754;29;20602;-78
2021/11/21 05:43:49;;;;;;;12.38;10.98;;;9.80;96.70;;;;;;4857183;29;20049;-77
2021/11/21 05:46:18;;;;;;;11.57;10.30;;;9.90;96.70;;;;;;4890518;29;20144;-77
2021/11/21 05:48:48;;;;;;;10.85;9.70;;;9.90;96.70;;;;;;4872568;29;20101;-78
2021/11/21 05:51:16;;;;;;;11.30;9.90;;;9.90;96.70;;;;;;4870373;29;20149;-77
2021/11/21 05:53:44;;;;;;;12.32;10.07;;;9.80;96.70;;;;;;4889967;29;20063;-77
2021/11/21 05:56:12;;;;;;;11.65;10.02;;;9.70;96.70;;;;;;4888108;29;20048;-78
2021/11/21 05:58:40;;;;;;;15.50;12.15;;;9.80;96.70;;;;;;4870804;29;20746;-77
2021/11/21 06:01:08;;;;;;;18.00;14.05;;;9.90;96.70;;;;;;4871235;29;20036;-78
2021/11/21 06:03:36;;;;;;;20.25;12.60;;;9.80;96.70;;;;;;4888057;29;20168;-77
2021/11/21 06:06:06;;;;;;;19.33;12.07;;;9.70;96.70;;;;;;4892106;29;20047;-77
2021/11/21 06:08:34;;;;;;;14.07;10.00;;;9.70;96.70;;;;;;4870335;29;20055;-77
2021/11/21 06:11:02;;;;;;;17.65;10.80;;;9.60;96.70;;;;;;4872403;29;20041;-77
2021/11/21 06:13:30;;;;;;;13.55;9.88;;;9.70;96.70;;;;;;4869576;29;20037;-77
2021/11/21 06:15:58;;;;;;;15.32;10.07;;;9.70;96.70;;;;;;4888308;29;20055;-77
2021/11/21 06:18:26;;;;;;;17.88;9.60;;;9.80;96.70;;;;;;4877400;29;20048;-77
2021/11/21 06:20:58;;;;;;;17.20;9.82;;;9.70;96.70;;;;;;4889554;29;20128;-77
2021/11/21 06:23:32;;;;;;;16.02;10.77;;;9.60;96.70;;;;;;4865952;29;20136;-77
2021/11/21 06:26:01;;;;;;;18.75;10.93;;;9.60;96.70;;;;;;4887785;29;20047;-78
2021/11/21 06:28:29;;;;;;;13.07;9.85;;;9.70;96.70;;;;;;4884968;29;20048;-77
2021/11/21 06:30:57;;;;;;;11.52;8.48;;;9.70;96.70;;;;;;4872176;29;20056;-78
2021/11/21 06:33:25;;;;;;;9.90;8.48;;;9.70;96.70;;;;;;4871098;29;20530;-78
2021/11/21 06:35:54;;;;;;;9.45;8.32;;;9.80;96.70;;;;;;4888664;29;20514;-76
2021/11/21 06:38:22;;;;;;;11.43;8.73;;;9.80;96.70;;;;;;4888657;29;20406;-77
2021/11/21 06:40:51;;;;;;;11.45;8.48;;;9.70;96.70;;;;;;4872228;29;20084;-76
2021/11/21 06:43:19;;;;;;;10.18;8.55;;;9.80;96.70;;;;;;4864776;29;20048;-76
2021/11/21 06:45:47;;;;;;;9.90;8.50;;;9.90;96.70;;;;;;4848317;29;20461;-77
2021/11/21 06:48:19;;;;;;;10.43;8.05;;;9.90;96.70;;;;;;4851308;29;20041;-77
2021/11/21 06:50:48;;;;;;;9.32;8.27;;;9.90;96.70;;;;;;4863899;29;20589;-77
2021/11/21 06:53:17;;;;;;;9.48;7.75;;;10.00;96.70;;;;;;4853716;29;20051;-76
2021/11/21 06:55:45;;;;;;;12.15;7.60;;;10.00;96.70;;;;;;4852172;29;20418;-77
2021/11/21 06:58:14;;;;;;;9.07;7.47;;;10.00;96.70;;;;;;4847095;29;20037;-76
2021/11/21 07:00:43;;;;;;;9.77;7.28;;;10.10;96.70;;;;;;4861278;29;20053;-74
2021/11/21 07:03:11;;;;;;;7.63;6.70;;;10.10;96.70;;;;;;4864538;29;20411;-74
2021/11/21 07:05:39;;;;;;;7.70;6.78;;;10.10;96.70;;;;;;4847279;29;20041;-74
2021/11/21 07:08:07;;;;;;;9.23;8.15;;;10.10;96.70;;;;;;4860581;29;20504;-74
2021/11/21 07:10:35;;;;;;;11.77;9.18;;;10.20;96.70;;;;;;4865784;29;20869;-75
2021/11/21 07:13:04;;;;;;;11.65;9.70;;;10.20;96.70;;;;;;4855293;29;20580;-74
2021/11/21 07:15:33;;;;;;;14.50;10.70;;;10.20;96.70;;;;;;4854521;29;20073;-75
2021/11/21 07:18:01;;;;;;;12.85;9.70;;;10.10;96.70;;;;;;4866627;29;20053;-74
2021/11/21 07:20:29;;;;;;;13.07;9.75;;;10.20;96.70;;;;;;4846188;29;20049;-74
2021/11/21 07:22:57;;;;;;;13.35;9.15;;;10.20;96.70;;;;;;4848443;29;20049;-74
2021/11/21 07:25:26;;;;;;;10.30;8.60;;;10.20;96.70;;;;;;4860487;29;20049;-74
2021/11/21 07:27:54;;;;;;;9.73;7.80;;;10.20;96.70;;;;;;4869653;29;20555;-74
2021/11/21 07:30:23;;;;;;;9.43;8.15;;;10.30;96.70;;;;;;4863964;29;20516;-74
2021/11/21 07:32:53;;;;;;;9.05;7.90;;;10.30;96.70;;;;;;4844315;29;20049;-74
2021/11/21 07:35:22;;;;;;;9.90;8.75;;;10.30;96.70;;;;;;4849299;29;20421;-74
2021/11/21 07:37:50;;;;;;;9.65;8.00;;;10.30;96.70;;;;;;4866180;29;20491;-74
2021/11/21 07:40:19;;;;;;;9.57;8.57;;;10.40;96.70;;;;;;4879889;29;20173;-74
2021/11/21 07:42:53;;;;;;;9.98;8.80;;;10.40;96.70;;;;;;4874162;29;20068;-75
2021/11/21 07:45:21;;;;;;;9.82;8.65;;;10.40;96.70;;;;;;4873886;29;20052;-74
2021/11/21 07:47:49;;;;;;;9.55;8.55;;;10.30;96.70;;;;;;4886896;29;20044;-74
2021/11/21 07:50:19;;;;;;;8.55;7.65;;;10.30;96.70;;;;;;4890271;29;20037;-74
2021/11/21 07:52:48;;;;;;;8.73;7.82;;;10.30;96.70;;;;;;4887757;29;20048;-74
2021/11/21 07:55:16;;;;;;;10.10;7.50;;;10.30;96.70;;;;;;4867584;29;20521;-74
2021/11/21 07:57:44;;;;;;;8.38;7.30;;;10.40;96.70;;;;;;4855793;29;20513;-74
2021/11/21 08:00:13;;;;;;;7.70;6.90;;;10.40;96.70;;;;;;4870977;29;20049;-74
2021/11/21 08:02:41;;;;;;;8.32;7.50;;;10.50;96.70;;;;;;4890201;29;20043;-74
2021/11/21 08:05:10;;;;;;;9.07;7.80;;;10.50;96.70;;;;;;4886606;29;20032;-74
2021/11/21 08:07:40;;;;;;;9.27;8.23;;;10.50;96.70;;;;;;4886548;29;20073;-76
2021/11/21 08:10:09;;;;;;;8.88;7.97;;;10.60;96.70;;;;;;4891079;29;20096;-77
2021/11/21 08:12:37;;;;;;;9.65;8.65;;;10.60;96.70;;;;;;4869749;29;20055;-77
2021/11/21 08:15:06;;;;;;;9.57;8.50;;;10.70;96.70;;;;;;4872679;29;20060;-76
2021/11/21 08:17:34;;;;;;;11.02;8.70;;;10.70;96.70;;;;;;4865074;29;20040;-77
2021/11/21 08:20:03;;;;;;;10.25;9.00;;;10.60;96.70;;;;;;4873853;29;20053;-77
2021/11/21 08:22:31;;;;;;;9.95;8.93;;;10.60;96.70;;;;;;4888102;29;20051;-77
2021/11/21 08:25:01;;;;;;;10.95;9.32;;;10.70;96.70;;;;;;4871648;29;20060;-77
2021/11/21 08:27:28;;;;;;;14.23;9.75;;;10.70;96.70;;;;;;4858423;29;20068;-77
2021/11/21 08:29:56;;;;;;;12.70;9.85;;;10.70;96.70;;;;;;4873523;29;20404;-77
2021/11/21 08:32:24;;;;;;;11.13;9.57;;;10.60;96.70;;;;;;4894139;29;20195;-76
2021/11/21 08:34:53;;;;;;;11.70;10.02;;;10.70;96.70;;;;;;4876287;29;20041;-77
2021/11/21 08:37:21;;;;;;;13.23;10.40;;;10.70;96.70;;;;;;4884920;29;20049;-77
2021/11/21 08:39:50;;;;;;;12.13;10.10;;;10.80;96.70;;;;;;4863708;29;20053;-74
2021/11/21 08:42:19;;;;;;;12.05;10.73;;;10.90;96.70;;;;;;4852520;29;20097;-74
2021/11/21 08:44:47;;;;;;;13.25;11.02;;;11.00;96.70;;;;;;4853019;29;20069;-77
2021/11/21 08:47:16;;;;;;;14.57;11.00;;;11.00;96.70;;;;;;4856253;29;20052;-76
2021/11/21 08:49:44;;;;;;;14.25;11.07;;;11.00;96.70;;;;;;4854890;29;20049;-77
2021/11/21 08:52:12;;;;;;;12.98;11.50;;;11.10;96.70;;;;;;4869298;29;20045;-77
2021/11/21 08:54:42;;;;;;;15.60;11.95;;;11.20;96.70;;;;;;4870782;29;20037;-77
2021/11/21 08:57:10;;;;;;;15.57;12.35;;;11.20;96.70;;;;;;4866430;29;20237;-78
2021/11/21 08:59:40;;;;;;;14.80;12.10;;;11.30;96.70;;;;;;4869555;29;20447;-76
2021/11/21 09:02:08;;;;;;;13.68;11.15;;;11.30;96.70;;;;;;4852508;29;20052;-77
2021/11/21 09:04:37;;;;;;;15.23;12.88;;;11.30;96.70;;;;;;4869876;29;20180;-77
2021/11/21 09:07:05;;;;;;;14.50;11.88;;;11.40;96.70;;;;;;4838084;29;20125;-78
2021/11/21 09:09:33;;;;;;;16.48;12.82;;;11.40;96.70;;;;;;4853628;29;20044;-77
2021/11/21 09:12:01;;;;;;;18.42;15.50;;;11.50;96.70;;;;;;4854579;29;20052;-76
2021/11/21 09:14:30;;;;;;;19.05;14.52;;;11.50;96.70;;;;;;4853683;29;20411;-75
2021/11/21 09:17:00;;;;;;;17.02;14.55;;;11.50;96.70;;;;;;4867630;29;20063;-76
2021/11/21 09:19:28;;;;;;;16.33;13.57;;;11.50;96.70;;;;;;4868027;29;20041;-76
2021/11/21 09:21:56;;;;;;;15.50;13.35;;;11.50;96.70;;;;;;4850770;29;20682;-76
2021/11/21 09:24:25;;;;;;;15.20;12.27;;;11.60;96.70;;;;;;4848697;29;20059;-77
2021/11/21 09:26:53;;;;;;;17.02;13.30;;;11.60;96.70;;;;;;4849744;29;20063;-76
2021/11/21 09:29:21;;;;;;;15.52;12.95;;;11.60;96.70;;;;;;4862223;29;20792;-78
2021/11/21 09:31:50;;;;;;;16.75;12.10;;;11.60;96.70;;;;;;4853345;29;20045;-77
2021/11/21 09:34:19;;;;;;;14.18;11.88;;;11.70;96.70;;;;;;4867358;29;20545;-79
2021/11/21 09:36:47;;;;;;;16.55;13.18;;;11.70;96.70;;;;;;4850082;29;20057;-77
2021/11/21 09:39:16;;;;;;;16.75;12.90;;;11.70;96.70;;;;;;4869937;29;20061;-77
2021/11/21 09:41:44;;;;;;;15.50;11.55;;;11.80;96.70;;;;;;4851607;29;20124;-75
2021/11/21 09:44:14;;;;;;;14.50;12.27;;;11.90;96.70;;;;;;4851052;29;20147;-77
2021/11/21 09:46:43;;;;;;;15.05;12.07;;;12.10;96.70;;;;;;4870467;29;20097;-76
2021/11/21 09:49:12;;;;;;;15.75;12.40;;;12.10;96.70;;;;;;4837845;29;20053;-77
2021/11/21 09:51:45;;;;;;;16.63;12.65;;;12.20;96.70;;;;;;4864391;29;20042;-76
2021/11/21 09:54:15;;;;;;;17.02;13.05;;;12.40;96.70;;;;;;4851058;29;20045;-76
2021/11/21 09:56:43;;;;;;;16.38;11.98;;;12.50;96.70;;;;;;4869721;29;20044;-76
2021/11/21 09:59:12;;;;;;;13.93;12.05;;;12.60;96.70;;;;;;4883876;29;20411;-79
2021/11/21 10:01:42;;;;;;;17.23;14.38;;;12.70;96.70;;;;;;4863567;29;20096;-76
2021/11/21 10:04:12;;;;;;;19.90;13.82;;;12.70;96.70;;;;;;4847253;29;20064;-80
2021/11/21 10:06:46;;;;;;;15.95;12.40;;;12.80;96.70;;;;;;4868980;29;20045;-77
2021/11/21 10:09:18;;;;;;;17.08;13.88;;;12.90;96.70;;;;;;4850905;29;20136;-77
2021/11/21 10:12:04;;;;;;;18.77;15.25;;;13.00;96.70;;;;;;4851354;29;20336;-78
2021/11/21 10:14:51;;;;;;;18.85;14.75;;;13.10;96.70;;;;;;4866684;29;20433;-79
2021/11/21 10:17:21;;;;;;;24.50;16.63;;;13.10;96.70;;;;;;4868630;29;20045;-77
2021/11/21 10:20:16;;;;;;;24.38;16.80;;;13.10;96.70;;;;;;4850492;29;20057;-78
2021/11/21 10:22:53;;;;;;;21.60;15.85;;;13.20;96.70;;;;;;4862896;29;20109;-78
2021/11/21 10:25:53;;;;;;;18.17;15.25;;;13.30;96.70;;;;;;4850864;29;20884;-78
2021/11/21 10:28:32;;;;;;;19.55;14.80;;;13.40;96.70;;;;;;4851892;29;20448;-77
2021/11/21 10:31:12;;;;;;;22.40;16.23;;;13.30;96.70;;;;;;4852079;29;20129;-73
2021/11/21 10:33:49;;;;;;;17.27;14.80;;;13.50;96.70;;;;;;4849487;29;20053;-75
2021/11/21 10:36:19;;;;;;;18.75;14.65;;;13.70;96.70;;;;;;4854184;29;20053;-77
2021/11/21 10:38:52;;;;;;;15.43;13.77;;;13.80;96.70;;;;;;4870254;29;20486;-74
2021/11/21 10:41:23;;;;;;;17.67;14.88;;;14.00;96.70;;;;;;4870009;29;20056;-78
2021/11/21 10:44:00;;;;;;;19.70;14.85;;;14.00;96.70;;;;;;4891055;29;20495;-78
2021/11/21 10:46:32;;;;;;;18.52;14.57;;;14.10;96.70;;;;;;4868487;29;20051;-78
2021/11/21 10:49:16;;;;;;;18.60;14.65;;;14.20;96.70;;;;;;4871296;29;20052;-78
2021/11/21 10:51:46;;;;;;;19.70;15.05;;;14.30;96.70;;;;;;4884187;29;20064;-77
2021/11/21 10:54:24;;;;;;;18.05;14.23;;;14.40;96.70;;;;;;4891283;29;20057;-78
2021/11/21 10:56:55;;;;;;;15.77;13.07;;;14.40;96.70;;;;;;4869616;29;20519;-78
2021/11/21 10:59:37;;;;;;;17.52;14.77;;;14.40;96.70;;;;;;4885492;29;20406;-78
2021/11/21 11:02:08;;;;;;;19.00;15.10;;;14.70;96.70;;;;;;4865983;29;20398;-77
2021/11/21 11:04:37;;;;;;;19.20;15.07;;;14.90;96.70;;;;;;4884420;29;20059;-75
2021/11/21 11:07:17;;;;;;;20.38;14.13;;;15.00;96.70;;;;;;4885104;29;20083;-77
2021/11/21 11:09:52;;;;;;;18.15;14.88;;;15.10;96.70;;;;;;4886041;29;20091;-77
2021/11/21 11:12:22;;;;;;;18.65;14.90;;;15.20;96.70;;;;;;4871182;29;20514;-78
2021/11/21 11:14:53;;;;;;;18.52;15.77;;;15.30;96.70;;;;;;4870172;29;20052;-79
2021/11/21 11:17:21;;;;;;;20.92;14.63;;;15.40;96.70;;;;;;4869935;29;20084;-76
2021/11/21 11:19:51;;;;;;;17.75;14.52;;;15.40;96.70;;;;;;4883644;29;20575;-76
2021/11/21 11:22:19;;;;;;;19.23;14.52;;;15.40;96.70;;;;;;4882802;29;20305;-77
2021/11/21 11:24:49;;;;;;;17.08;13.98;;;15.40;96.70;;;;;;4869332;29;20044;-78
2021/11/21 11:27:28;;;;;;;17.05;14.32;;;15.50;96.70;;;;;;4857049;29;20428;-77
2021/11/21 11:29:57;;;;;;;25.55;18.25;;;15.60;96.70;;;;;;4886441;29;20048;-77
2021/11/21 11:32:29;;;;;;;18.50;15.40;;;15.70;96.70;;;;;;4885179;29;20772;-76
2021/11/21 11:34:57;;;;;;;17.75;15.95;;;15.70;96.70;;;;;;4885087;29;20121;-76
2021/11/21 11:37:40;;;;;;;16.38;14.68;;;15.80;96.70;;;;;;4884071;29;20499;-75
2021/11/21 11:40:55;;;;;;;18.70;14.02;;;15.80;96.70;;;;;;4883404;29;20261;-76
2021/11/21 11:43:41;;;;;;;18.13;13.43;;;15.80;96.70;;;;;;4869552;29;20473;-76
2021/11/21 11:46:37;;;;;;;17.05;13.65;;;15.70;96.70;;;;;;4886666;29;20131;-76
2021/11/21 11:49:07;;;;;;;17.83;13.13;;;15.80;96.70;;;;;;4849078;29;20468;-76
2021/11/21 11:51:50;;;;;;;17.27;13.38;;;15.90;96.70;;;;;;4872576;29;20527;-77
2021/11/21 11:54:27;;;;;;;15.70;12.38;;;16.00;96.70;;;;;;4872322;29;20139;-76
2021/11/21 11:57:01;;;;;;;15.13;12.32;;;16.10;96.70;;;;;;4887681;29;20140;-76
2021/11/21 11:59:34;;;;;;;15.27;11.73;;;16.10;96.70;;;;;;4874115;29;20048;-76
2021/11/21 12:02:08;;;;;;;14.57;10.90;;;16.20;96.70;;;;;;4870196;29;20060;-76
2021/11/21 12:04:48;;;;;;;16.30;12.35;;;16.20;96.70;;;;;;4886544;29;20052;-76
2021/11/21 12:07:25;;;;;;;15.68;12.35;;;16.30;96.70;;;;;;4886878;29;20143;-76
2021/11/21 12:10:20;;;;;;;13.52;11.65;;;16.30;96.70;;;;;;4873290;29;20052;-77
2021/11/21 12:13:07;;;;;;;15.20;11.63;;;16.40;96.70;;;;;;4883554;29;20806;-77
2021/11/21 12:15:45;;;;;;;;;;;16.40;96.70;;;;;;4873312;29;20242;-77
2021/11/21 12:18:14;;;;;;;12.13;10.70;;;16.30;96.70;;;;;;4883938;29;19927;-77
2021/11/21 12:20:55;;;;;;;13.75;10.40;;;16.20;96.70;;;;;;4873747;29;20040;-76
2021/11/21 12:24:07;;;;;;;12.55;9.30;;;16.20;96.70;;;;;;4875204;29;20388;-76
2021/11/21 12:26:38;;;;;;;15.30;11.68;;;16.20;96.70;;;;;;4887934;29;20143;-77
2021/11/21 12:29:29;;;;;;;13.38;10.55;;;16.20;96.70;;;;;;4888396;29;20136;-76
2021/11/21 12:32:19;;;;;;;13.38;10.45;;;16.20;96.70;;;;;;4853262;29;20396;-77
2021/11/21 12:34:49;;;;;;;15.63;11.32;;;16.30;96.70;;;;;;4870847;29;20052;-77
2021/11/21 12:37:35;;;;;;;14.20;11.43;;;16.30;96.70;;;;;;4870485;29;20152;-77
2021/11/21 12:40:13;;;;;;;12.37;10.37;;;16.30;96.70;;;;;;4869940;29;20152;-77
2021/11/21 12:42:43;;;;;;;12.43;9.65;;;16.30;96.70;;;;;;4871425;29;20298;-77
2021/11/21 12:45:17;;;;;;;12.82;10.73;;;16.30;96.70;;;;;;4887705;29;20100;-77
2021/11/21 12:47:48;;;;;;;12.85;10.45;;;16.30;96.70;;;;;;4888094;29;20128;-77
2021/11/21 12:50:21;;;;;;;12.73;10.15;;;16.30;96.70;;;;;;4889267;29;20213;-77